sensor_id;sensor_type;location;lat;lon;timestamp;temperature;humidity
16846;DHT22;8539;53.188;8.696;2024-03-23T00:54:55;5.90;99.90
16846;DHT22;8539;53.188;8.696;2024-03-23T00:57:22;5.90;99.90
16846;DHT22;8539;53.188;8.696;2024-03-23T00:59:48;5.90;99.90
16846;DHT22;8539;53.188;8.696;2024-03-23T01:02:14;5.90;99.90
16846;DHT22;8539;53.188;8.696;2024-03-23T01:04:41;5.90;99.90
16846;DHT22;8539;53.188;8.696;2024-03-23T01:07:07;5.80;99.90
16846;DHT22;8539;53.188;8.696;2024-03-23T01:09:33;5.80;99.90
16846;DHT22;8539;53.188;8.696;2024-03-23T01:12:00;5.80;99.90
16846;DHT22;8539;53.188;8.696;2024-03-23T01:14:27;5.80;99.90
16846;DHT22;8539;53.188;8.696;2024-03-23T01:16:54;5.70;99.90
16846;DHT22;8539;53.188;8.696;2024-03-23T01:19:20;5.70;99.90
16846;DHT22;8539;53.188;8.696;2024-03-23T01:21:46;5.70;99.90
16846;DHT22;8539;53.188;8.696;2024-03-23T01:24:14;5.70;99.90
16846;DHT22;8539;53.188;8.696;2024-03-23T01:26:41;5.60;99.90
16846;DHT22;8539;53.188;8.696;2024-03-23T01:29:07;5.60;99.90
16846;DHT22;8539;53.188;8.696;2024-03-23T01:31:34;5.60;99.90
16846;DHT22;8539;53.188;8.696;2024-03-23T01:34:00;5.60;99.90
16846;DHT22;8539;53.188;8.696;2024-03-23T01:36:26;5.60;99.90
16846;DHT22;8539;53.188;8.696;2024-03-23T01:38:53;5.60;99.90
16846;DHT22;8539;53.188;8.696;2024-03-23T01:41:19;5.60;99.90
16846;DHT22;8539;53.188;8.696;2024-03-23T01:43:46;5.60;99.90
16846;DHT22;8539;53.188;8.696;2024-03-23T01:46:13;5.60;99.90
16846;DHT22;8539;53.188;8.696;2024-03-23T01:48:39;5.60;99.90
16846;DHT22;8539;53.188;8.696;2024-03-23T01:51:06;5.60;99.90
16846;DHT22;8539;53.188;8.696;2024-03-23T01:53:32;5.70;99.90
16846;DHT22;8539;53.188;8.696;2024-03-23T01:55:59;5.70;99.90
16846;DHT22;8539;53.188;8.696;2024-03-23T01:58:25;5.70;99.90
16846;DHT22;8539;53.188;8.696;2024-03-23T02:00:51;5.70;99.90
16846;DHT22;8539;53.188;8.696;2024-03-23T02:03:27;5.60;99.90
16846;DHT22;8539;53.188;8.696;2024-03-23T02:05:54;5.60;99.90
16846;DHT22;8539;53.188;8.696;2024-03-23T02:08:22;5.60;99.90
16846;DHT22;8539;53.188;8.696;2024-03-23T02:10:52;5.60;99.90
16846;DHT22;8539;53.188;8.696;2024-03-23T02:13:19;5.70;99.90
16846;DHT22;8539;53.188;8.696;2024-03-23T02:15:45;5.70;99.90
16846;DHT22;8539;53.188;8.696;2024-03-23T02:18:12;5.70;99.90
16846;DHT22;8539;53.188;8.696;2024-03-23T02:20:38;5.60;99.90
16846;DHT22;8539;53.188;8.696;2024-03-23T02:23:05;5.70;99.90
16846;DHT22;8539;53.188;8.696;2024-03-23T02:25:34;5.70;99.90
16846;DHT22;8539;53.188;8.696;2024-03-23T02:28:00;5.60;99.90
16846;DHT22;8539;53.188;8.696;2024-03-23T02:30:26;5.70;99.90
16846;DHT22;8539;53.188;8.696;2024-03-23T02:32:53;5.70;99.90
16846;DHT22;8539;53.188;8.696;2024-03-23T02:35:19;5.60;99.90
16846;DHT22;8539;53.188;8.696;2024-03-23T02:37:46;5.60;99.90
16846;DHT22;8539;53.188;8.696;2024-03-23T02:40:15;5.60;99.90
16846;DHT22;8539;53.188;8.696;2024-03-23T02:42:41;5.60;99.90
16846;DHT22;8539;53.188;8.696;2024-03-23T02:45:08;5.60;99.90
16846;DHT22;8539;53.188;8.696;2024-03-23T02:47:34;5.60;99.90
16846;DHT22;8539;53.188;8.696;2024-03-23T02:50:01;5.60;99.90
16846;DHT22;8539;53.188;8.696;2024-03-23T02:52:27;5.60;99.90
16846;DHT22;8539;53.188;8.696;2024-03-23T02:54:53;5.60;99.90
16846;DHT22;8539;53.188;8.696;2024-03-23T02:57:20;5.60;99.90
16846;DHT22;8539;53.188;8.696;2024-03-23T02:59:46;5.60;99.90
16846;DHT22;8539;53.188;8.696;2024-03-23T03:02:13;5.60;99.90
16846;DHT22;8539;53.188;8.696;2024-03-23T03:04:39;5.70;99.90
16846;DHT22;8539;53.188;8.696;2024-03-23T03:07:06;5.50;99.90
16846;DHT22;8539;53.188;8.696;2024-03-23T03:09:32;5.50;99.90
16846;DHT22;8539;53.188;8.696;2024-03-23T03:11:59;5.50;99.90
16846;DHT22;8539;53.188;8.696;2024-03-23T03:14:25;5.50;99.90
16846;DHT22;8539;53.188;8.696;2024-03-23T03:16:51;5.40;99.90
16846;DHT22;8539;53.188;8.696;2024-03-23T03:19:17;5.40;99.90
16846;DHT22;8539;53.188;8.696;2024-03-23T03:21:43;5.40;99.90
16846;DHT22;8539;53.188;8.696;2024-03-23T03:24:09;5.40;99.90
16846;DHT22;8539;53.188;8.696;2024-03-23T03:26:36;5.40;99.90
16846;DHT22;8539;53.188;8.696;2024-03-23T03:29:03;5.40;99.90
16846;DHT22;8539;53.188;8.696;2024-03-23T03:31:29;5.40;99.90
16846;DHT22;8539;53.188;8.696;2024-03-23T03:33:55;5.40;99.90
16846;DHT22;8539;53.188;8.696;2024-03-23T03:36:21;5.40;99.90
16846;DHT22;8539;53.188;8.696;2024-03-23T03:38:47;5.30;99.90
16846;DHT22;8539;53.188;8.696;2024-03-23T03:41:13;5.30;99.90
16846;DHT22;8539;53.188;8.696;2024-03-23T03:43:40;5.30;99.90
16846;DHT22;8539;53.188;8.696;2024-03-23T03:46:06;5.30;99.90
16846;DHT22;8539;53.188;8.696;2024-03-23T03:48:34;5.30;99.90
16846;DHT22;8539;53.188;8.696;2024-03-23T03:51:00;5.30;99.90
16846;DHT22;8539;53.188;8.696;2024-03-23T03:53:26;5.30;99.90
16846;DHT22;8539;53.188;8.696;2024-03-23T03:55:52;5.30;99.90
16846;DHT22;8539;53.188;8.696;2024-03-23T03:58:19;5.20;99.90
16846;DHT22;8539;53.188;8.696;2024-03-23T04:00:45;5.20;99.90
16846;DHT22;8539;53.188;8.696;2024-03-23T04:03:11;5.20;99.90
16846;DHT22;8539;53.188;8.696;2024-03-23T04:05:37;5.20;99.90
16846;DHT22;8539;53.188;8.696;2024-03-23T04:08:05;5.20;99.90
16846;DHT22;8539;53.188;8.696;2024-03-23T04:10:31;5.10;99.90
16846;DHT22;8539;53.188;8.696;2024-03-23T04:12:57;5.10;99.90
16846;DHT22;8539;53.188;8.696;2024-03-23T04:15:24;5.10;99.90
16846;DHT22;8539;53.188;8.696;2024-03-23T04:17:50;5.10;99.90
16846;DHT22;8539;53.188;8.696;2024-03-23T04:20:16;5.10;99.90
16846;DHT22;8539;53.188;8.696;2024-03-23T04:22:43;5.10;99.90
16846;DHT22;8539;53.188;8.696;2024-03-23T04:25:09;5.10;99.90
16846;DHT22;8539;53.188;8.696;2024-03-23T04:27:36;5.10;99.90
16846;DHT22;8539;53.188;8.696;2024-03-23T04:30:04;5.10;99.90
16846;DHT22;8539;53.188;8.696;2024-03-23T04:32:39;5.10;99.90
16846;DHT22;8539;53.188;8.696;2024-03-23T04:35:06;5.10;99.90
16846;DHT22;8539;53.188;8.696;2024-03-23T04:37:36;5.10;99.90
16846;DHT22;8539;53.188;8.696;2024-03-23T04:40:03;5.10;99.90
16846;DHT22;8539;53.188;8.696;2024-03-23T04:42:30;5.10;99.90
16846;DHT22;8539;53.188;8.696;2024-03-23T04:44:57;5.10;99.90
16846;DHT22;8539;53.188;8.696;2024-03-23T04:47:23;5.10;99.90
16846;DHT22;8539;53.188;8.696;2024-03-23T04:49:49;5.10;99.90
16846;DHT22;8539;53.188;8.696;2024-03-23T04:52:19;5.10;99.90
16846;DHT22;8539;53.188;8.696;2024-03-23T04:54:45;5.10;99.90
16846;DHT22;8539;53.188;8.696;2024-03-23T04:57:11;5.10;99.90
16846;DHT22;8539;53.188;8.696;2024-03-23T04:59:38;5.10;99.90
16846;DHT22;8539;53.188;8.696;2024-03-23T05:02:04;5.10;99.90
16846;DHT22;8539;53.188;8.696;2024-03-23T05:04:30;5.00;99.90
16846;DHT22;8539;53.188;8.696;2024-03-23T05:06:58;5.00;99.90
16846;DHT22;8539;53.188;8.696;2024-03-23T05:09:24;5.00;99.90
16846;DHT22;8539;53.188;8.696;2024-03-23T05:11:56;5.00;99.90
16846;DHT22;8539;53.188;8.696;2024-03-23T05:14:23;4.90;99.90
16846;DHT22;8539;53.188;8.696;2024-03-23T05:16:49;4.90;99.90
16846;DHT22;8539;53.188;8.696;2024-03-23T05:19:15;4.90;99.90
16846;DHT22;8539;53.188;8.696;2024-03-23T05:21:42;4.80;99.90
16846;DHT22;8539;53.188;8.696;2024-03-23T05:24:08;4.80;99.90
16846;DHT22;8539;53.188;8.696;2024-03-23T05:26:35;4.70;99.90
16846;DHT22;8539;53.188;8.696;2024-03-23T05:29:02;4.70;99.90
16846;DHT22;8539;53.188;8.696;2024-03-23T05:31:30;4.60;99.90
16846;DHT22;8539;53.188;8.696;2024-03-23T05:33:56;4.60;99.90
16846;DHT22;8539;53.188;8.696;2024-03-23T05:36:23;4.60;99.90
16846;DHT22;8539;53.188;8.696;2024-03-23T05:38:50;4.60;99.90
16846;DHT22;8539;53.188;8.696;2024-03-23T05:41:16;4.60;99.90
16846;DHT22;8539;53.188;8.696;2024-03-23T05:43:43;4.60;99.90
16846;DHT22;8539;53.188;8.696;2024-03-23T05:46:09;4.50;99.90
16846;DHT22;8539;53.188;8.696;2024-03-23T05:48:36;4.50;99.90
16846;DHT22;8539;53.188;8.696;2024-03-23T05:51:02;4.50;99.90
16846;DHT22;8539;53.188;8.696;2024-03-23T05:53:29;4.50;99.90
16846;DHT22;8539;53.188;8.696;2024-03-23T05:56:03;4.50;99.90
16846;DHT22;8539;53.188;8.696;2024-03-23T05:58:35;4.50;99.90
16846;DHT22;8539;53.188;8.696;2024-03-23T06:01:02;4.50;99.90
16846;DHT22;8539;53.188;8.696;2024-03-23T06:03:29;4.50;99.90
16846;DHT22;8539;53.188;8.696;2024-03-23T06:05:55;4.50;99.90
16846;DHT22;8539;53.188;8.696;2024-03-23T06:08:22;4.50;99.90
16846;DHT22;8539;53.188;8.696;2024-03-23T06:10:48;4.50;99.90
16846;DHT22;8539;53.188;8.696;2024-03-23T06:13:16;4.50;99.90
16846;DHT22;8539;53.188;8.696;2024-03-23T06:15:43;4.50;99.90
16846;DHT22;8539;53.188;8.696;2024-03-23T06:18:11;4.50;99.90
16846;DHT22;8539;53.188;8.696;2024-03-23T06:20:38;4.50;99.90
16846;DHT22;8539;53.188;8.696;2024-03-23T06:23:04;4.50;99.90
16846;DHT22;8539;53.188;8.696;2024-03-23T06:25:30;4.50;99.90
16846;DHT22;8539;53.188;8.696;2024-03-23T06:27:57;4.60;99.90
16846;DHT22;8539;53.188;8.696;2024-03-23T06:30:24;4.60;99.90
16846;DHT22;8539;53.188;8.696;2024-03-23T06:32:52;4.70;99.90
16846;DHT22;8539;53.188;8.696;2024-03-23T06:35:19;4.70;99.90
16846;DHT22;8539;53.188;8.696;2024-03-23T06:37:46;4.80;99.90
16846;DHT22;8539;53.188;8.696;2024-03-23T06:40:13;4.80;99.90
16846;DHT22;8539;53.188;8.696;2024-03-23T06:42:39;4.90;99.90
16846;DHT22;8539;53.188;8.696;2024-03-23T06:45:06;4.90;99.90
16846;DHT22;8539;53.188;8.696;2024-03-23T06:47:33;5.00;99.90
16846;DHT22;8539;53.188;8.696;2024-03-23T06:50:03;5.10;99.90
16846;DHT22;8539;53.188;8.696;2024-03-23T06:52:30;5.10;99.90
16846;DHT22;8539;53.188;8.696;2024-03-23T06:54:58;5.20;99.90
16846;DHT22;8539;53.188;8.696;2024-03-23T06:57:24;5.50;99.90
16846;DHT22;8539;53.188;8.696;2024-03-23T06:59:51;6.00;99.90
16846;DHT22;8539;53.188;8.696;2024-03-23T07:02:17;6.40;99.90
16846;DHT22;8539;53.188;8.696;2024-03-23T07:04:44;6.50;99.90
16846;DHT22;8539;53.188;8.696;2024-03-23T07:07:10;6.60;99.90
16846;DHT22;8539;53.188;8.696;2024-03-23T07:09:37;6.70;99.90
16846;DHT22;8539;53.188;8.696;2024-03-23T07:12:04;6.90;99.90
16846;DHT22;8539;53.188;8.696;2024-03-23T07:14:30;7.20;99.90
16846;DHT22;8539;53.188;8.696;2024-03-23T07:16:57;7.40;99.90
16846;DHT22;8539;53.188;8.696;2024-03-23T07:19:23;7.40;99.90
16846;DHT22;8539;53.188;8.696;2024-03-23T07:21:50;7.50;99.90
16846;DHT22;8539;53.188;8.696;2024-03-23T07:24:16;7.70;99.90
16846;DHT22;8539;53.188;8.696;2024-03-23T07:26:43;7.70;99.90
16846;DHT22;8539;53.188;8.696;2024-03-23T07:29:09;7.80;99.90
16846;DHT22;8539;53.188;8.696;2024-03-23T07:31:36;8.00;99.90
16846;DHT22;8539;53.188;8.696;2024-03-23T07:34:02;8.20;99.90
16846;DHT22;8539;53.188;8.696;2024-03-23T07:36:28;8.20;99.90
16846;DHT22;8539;53.188;8.696;2024-03-23T07:38:54;8.40;99.90
16846;DHT22;8539;53.188;8.696;2024-03-23T07:41:21;8.60;99.90
16846;DHT22;8539;53.188;8.696;2024-03-23T07:43:47;8.70;99.90
16846;DHT22;8539;53.188;8.696;2024-03-23T07:46:15;8.80;99.90
16846;DHT22;8539;53.188;8.696;2024-03-23T07:48:41;8.80;99.90
16846;DHT22;8539;53.188;8.696;2024-03-23T07:51:17;8.80;99.90
16846;DHT22;8539;53.188;8.696;2024-03-23T07:53:45;8.80;99.90
16846;DHT22;8539;53.188;8.696;2024-03-23T07:56:18;9.00;99.90
16846;DHT22;8539;53.188;8.696;2024-03-23T07:58:49;9.20;99.90
16846;DHT22;8539;53.188;8.696;2024-03-23T08:01:17;9.40;99.90
16846;DHT22;8539;53.188;8.696;2024-03-23T08:03:44;9.50;99.90
16846;DHT22;8539;53.188;8.696;2024-03-23T08:06:15;9.60;99.90
16846;DHT22;8539;53.188;8.696;2024-03-23T08:08:42;9.60;99.90
16846;DHT22;8539;53.188;8.696;2024-03-23T08:11:08;9.60;99.90
16846;DHT22;8539;53.188;8.696;2024-03-23T08:13:36;9.60;99.90
16846;DHT22;8539;53.188;8.696;2024-03-23T08:16:03;9.50;99.90
16846;DHT22;8539;53.188;8.696;2024-03-23T08:18:30;9.50;99.90
16846;DHT22;8539;53.188;8.696;2024-03-23T08:21:03;9.50;99.90
16846;DHT22;8539;53.188;8.696;2024-03-23T08:23:31;9.40;99.90
16846;DHT22;8539;53.188;8.696;2024-03-23T08:26:09;9.40;99.90
16846;DHT22;8539;53.188;8.696;2024-03-23T08:28:36;9.40;99.90
16846;DHT22;8539;53.188;8.696;2024-03-23T08:31:08;9.50;99.90
16846;DHT22;8539;53.188;8.696;2024-03-23T08:33:35;9.60;99.90
16846;DHT22;8539;53.188;8.696;2024-03-23T08:36:03;9.60;99.90
16846;DHT22;8539;53.188;8.696;2024-03-23T08:38:29;9.60;99.90
16846;DHT22;8539;53.188;8.696;2024-03-23T08:41:03;9.50;99.90
16846;DHT22;8539;53.188;8.696;2024-03-23T08:43:32;9.40;99.90
16846;DHT22;8539;53.188;8.696;2024-03-23T08:46:06;9.40;99.90
16846;DHT22;8539;53.188;8.696;2024-03-23T08:48:39;9.30;99.90
16846;DHT22;8539;53.188;8.696;2024-03-23T08:51:06;9.20;99.90
16846;DHT22;8539;53.188;8.696;2024-03-23T08:53:34;9.10;99.90
16846;DHT22;8539;53.188;8.696;2024-03-23T08:56:01;9.20;99.90
16846;DHT22;8539;53.188;8.696;2024-03-23T08:58:29;9.40;99.90
16846;DHT22;8539;53.188;8.696;2024-03-23T09:01:02;9.60;99.90
16846;DHT22;8539;53.188;8.696;2024-03-23T09:03:29;9.70;99.90
16846;DHT22;8539;53.188;8.696;2024-03-23T09:05:55;9.70;99.90
16846;DHT22;8539;53.188;8.696;2024-03-23T09:08:21;9.60;99.90
16846;DHT22;8539;53.188;8.696;2024-03-23T09:10:48;9.70;99.90
16846;DHT22;8539;53.188;8.696;2024-03-23T09:13:14;9.60;99.90
16846;DHT22;8539;53.188;8.696;2024-03-23T09:15:52;9.50;99.90
16846;DHT22;8539;53.188;8.696;2024-03-23T09:18:22;9.30;99.90
16846;DHT22;8539;53.188;8.696;2024-03-23T09:20:48;9.10;99.90
16846;DHT22;8539;53.188;8.696;2024-03-23T09:23:14;9.00;99.90
16846;DHT22;8539;53.188;8.696;2024-03-23T09:25:40;8.90;99.90
16846;DHT22;8539;53.188;8.696;2024-03-23T09:28:06;9.10;99.90
16846;DHT22;8539;53.188;8.696;2024-03-23T09:30:35;9.30;99.90
16846;DHT22;8539;53.188;8.696;2024-03-23T09:33:02;9.60;99.90
16846;DHT22;8539;53.188;8.696;2024-03-23T09:35:28;9.90;99.90
16846;DHT22;8539;53.188;8.696;2024-03-23T09:37:54;10.20;99.90
16846;DHT22;8539;53.188;8.696;2024-03-23T09:40:20;10.40;99.90
16846;DHT22;8539;53.188;8.696;2024-03-23T09:42:50;10.50;99.90
16846;DHT22;8539;53.188;8.696;2024-03-23T09:45:22;10.50;99.90
16846;DHT22;8539;53.188;8.696;2024-03-23T09:47:48;10.50;99.90
16846;DHT22;8539;53.188;8.696;2024-03-23T09:50:16;10.40;99.90
16846;DHT22;8539;53.188;8.696;2024-03-23T09:52:42;10.50;99.90
16846;DHT22;8539;53.188;8.696;2024-03-23T09:55:09;10.50;99.90
16846;DHT22;8539;53.188;8.696;2024-03-23T09:57:35;10.60;99.90
16846;DHT22;8539;53.188;8.696;2024-03-23T10:00:02;10.60;99.90
16846;DHT22;8539;53.188;8.696;2024-03-23T10:02:29;10.70;99.90
16846;DHT22;8539;53.188;8.696;2024-03-23T10:04:55;10.80;99.90
16846;DHT22;8539;53.188;8.696;2024-03-23T10:07:23;11.00;99.90
16846;DHT22;8539;53.188;8.696;2024-03-23T10:09:50;10.90;99.90
16846;DHT22;8539;53.188;8.696;2024-03-23T10:12:19;10.90;99.90
16846;DHT22;8539;53.188;8.696;2024-03-23T10:14:46;11.00;99.90
16846;DHT22;8539;53.188;8.696;2024-03-23T10:17:21;11.20;99.90
16846;DHT22;8539;53.188;8.696;2024-03-23T10:19:51;11.40;99.90
16846;DHT22;8539;53.188;8.696;2024-03-23T10:22:21;11.50;99.90
16846;DHT22;8539;53.188;8.696;2024-03-23T10:24:48;11.50;99.90
16846;DHT22;8539;53.188;8.696;2024-03-23T10:27:19;11.60;99.90
16846;DHT22;8539;53.188;8.696;2024-03-23T10:29:46;11.80;99.90
16846;DHT22;8539;53.188;8.696;2024-03-23T10:32:14;11.90;99.90
16846;DHT22;8539;53.188;8.696;2024-03-23T10:34:40;12.00;99.90
16846;DHT22;8539;53.188;8.696;2024-03-23T10:37:07;12.20;99.90
16846;DHT22;8539;53.188;8.696;2024-03-23T10:39:40;12.30;99.90
16846;DHT22;8539;53.188;8.696;2024-03-23T10:42:10;12.40;99.90
16846;DHT22;8539;53.188;8.696;2024-03-23T10:44:36;12.40;99.90
16846;DHT22;8539;53.188;8.696;2024-03-23T10:47:04;12.30;99.90
16846;DHT22;8539;53.188;8.696;2024-03-23T10:49:32;12.00;99.90
16846;DHT22;8539;53.188;8.696;2024-03-23T10:52:05;11.80;99.90
16846;DHT22;8539;53.188;8.696;2024-03-23T10:54:32;11.70;99.90
16846;DHT22;8539;53.188;8.696;2024-03-23T10:57:08;11.70;99.90
16846;DHT22;8539;53.188;8.696;2024-03-23T10:59:37;11.70;99.90
16846;DHT22;8539;53.188;8.696;2024-03-23T11:02:03;11.80;99.90
16846;DHT22;8539;53.188;8.696;2024-03-23T11:04:34;12.00;99.90
16846;DHT22;8539;53.188;8.696;2024-03-23T11:07:01;12.30;99.90
16846;DHT22;8539;53.188;8.696;2024-03-23T11:09:43;12.50;99.90
16846;DHT22;8539;53.188;8.696;2024-03-23T11:14:50;12.40;99.90
16846;DHT22;8539;53.188;8.696;2024-03-23T11:17:21;12.20;99.90
16846;DHT22;8539;53.188;8.696;2024-03-23T11:22:38;11.80;99.90
16846;DHT22;8539;53.188;8.696;2024-03-23T11:25:18;11.70;99.90
16846;DHT22;8539;53.188;8.696;2024-03-23T11:27:45;11.60;99.90
16846;DHT22;8539;53.188;8.696;2024-03-23T11:30:21;11.50;99.90
16846;DHT22;8539;53.188;8.696;2024-03-23T11:32:52;11.50;99.90
16846;DHT22;8539;53.188;8.696;2024-03-23T11:35:29;11.30;99.90
16846;DHT22;8539;53.188;8.696;2024-03-23T11:38:12;11.50;99.90
16846;DHT22;8539;53.188;8.696;2024-03-23T11:40:41;11.80;99.90
16846;DHT22;8539;53.188;8.696;2024-03-23T11:43:09;12.00;99.90
16846;DHT22;8539;53.188;8.696;2024-03-23T11:45:45;12.20;99.90
16846;DHT22;8539;53.188;8.696;2024-03-23T11:48:16;12.40;99.90
16846;DHT22;8539;53.188;8.696;2024-03-23T11:50:46;12.60;99.90
16846;DHT22;8539;53.188;8.696;2024-03-23T11:53:23;12.60;99.90
16846;DHT22;8539;53.188;8.696;2024-03-23T11:55:53;12.40;99.90
16846;DHT22;8539;53.188;8.696;2024-03-23T11:58:21;12.10;99.90
16846;DHT22;8539;53.188;8.696;2024-03-23T12:00:59;11.90;99.90
16846;DHT22;8539;53.188;8.696;2024-03-23T12:03:26;11.60;99.90
16846;DHT22;8539;53.188;8.696;2024-03-23T12:05:59;11.50;99.90
16846;DHT22;8539;53.188;8.696;2024-03-23T12:08:36;11.30;99.90
16846;DHT22;8539;53.188;8.696;2024-03-23T12:13:31;10.00;99.90
16846;DHT22;8539;53.188;8.696;2024-03-23T12:16:18;8.80;99.90
16846;DHT22;8539;53.188;8.696;2024-03-23T12:18:49;7.50;99.90
16846;DHT22;8539;53.188;8.696;2024-03-23T12:21:16;6.60;99.90
16846;DHT22;8539;53.188;8.696;2024-03-23T12:23:44;6.00;99.90
16846;DHT22;8539;53.188;8.696;2024-03-23T12:26:14;5.60;99.90
16846;DHT22;8539;53.188;8.696;2024-03-23T12:28:41;5.40;99.90
16846;DHT22;8539;53.188;8.696;2024-03-23T12:31:07;5.30;99.90
16846;DHT22;8539;53.188;8.696;2024-03-23T12:33:33;5.30;99.90
16846;DHT22;8539;53.188;8.696;2024-03-23T12:35:59;5.50;99.90
16846;DHT22;8539;53.188;8.696;2024-03-23T12:38:25;5.40;99.90
16846;DHT22;8539;53.188;8.696;2024-03-23T12:40:52;5.40;99.90
16846;DHT22;8539;53.188;8.696;2024-03-23T12:43:18;5.50;99.90
16846;DHT22;8539;53.188;8.696;2024-03-23T12:45:48;5.90;99.90
16846;DHT22;8539;53.188;8.696;2024-03-23T12:48:14;6.50;99.90
16846;DHT22;8539;53.188;8.696;2024-03-23T12:50:40;6.80;99.90
16846;DHT22;8539;53.188;8.696;2024-03-23T12:53:06;7.10;99.90
16846;DHT22;8539;53.188;8.696;2024-03-23T12:55:35;7.40;99.90
16846;DHT22;8539;53.188;8.696;2024-03-23T12:58:01;7.70;99.90
16846;DHT22;8539;53.188;8.696;2024-03-23T13:00:28;8.00;99.90
16846;DHT22;8539;53.188;8.696;2024-03-23T13:02:54;8.40;99.90
16846;DHT22;8539;53.188;8.696;2024-03-23T13:05:20;8.70;99.90
16846;DHT22;8539;53.188;8.696;2024-03-23T13:07:46;9.00;99.90
16846;DHT22;8539;53.188;8.696;2024-03-23T13:10:12;9.40;99.90
16846;DHT22;8539;53.188;8.696;2024-03-23T13:12:40;9.70;99.90
16846;DHT22;8539;53.188;8.696;2024-03-23T13:15:06;9.90;99.90
16846;DHT22;8539;53.188;8.696;2024-03-23T13:17:32;9.80;99.90
16846;DHT22;8539;53.188;8.696;2024-03-23T13:19:59;9.50;99.90
16846;DHT22;8539;53.188;8.696;2024-03-23T13:22:25;8.90;99.90
16846;DHT22;8539;53.188;8.696;2024-03-23T13:24:51;8.40;99.90
16846;DHT22;8539;53.188;8.696;2024-03-23T13:27:17;8.00;99.90
16846;DHT22;8539;53.188;8.696;2024-03-23T13:29:43;7.70;99.90
16846;DHT22;8539;53.188;8.696;2024-03-23T13:32:11;7.50;99.90
16846;DHT22;8539;53.188;8.696;2024-03-23T13:34:37;7.30;99.90
16846;DHT22;8539;53.188;8.696;2024-03-23T13:37:04;7.10;99.90
16846;DHT22;8539;53.188;8.696;2024-03-23T13:39:30;7.10;99.90
16846;DHT22;8539;53.188;8.696;2024-03-23T13:41:56;7.30;99.90
16846;DHT22;8539;53.188;8.696;2024-03-23T13:44:22;7.60;99.90
16846;DHT22;8539;53.188;8.696;2024-03-23T13:46:49;8.00;99.90
16846;DHT22;8539;53.188;8.696;2024-03-23T13:49:33;8.40;99.90
16846;DHT22;8539;53.188;8.696;2024-03-23T13:52:00;8.70;99.90
16846;DHT22;8539;53.188;8.696;2024-03-23T13:54:27;9.00;99.90
16846;DHT22;8539;53.188;8.696;2024-03-23T13:56:54;9.10;99.90
16846;DHT22;8539;53.188;8.696;2024-03-23T13:59:21;9.10;99.90
16846;DHT22;8539;53.188;8.696;2024-03-23T14:01:49;8.90;99.90
16846;DHT22;8539;53.188;8.696;2024-03-23T14:04:18;8.80;99.90
16846;DHT22;8539;53.188;8.696;2024-03-23T14:06:48;8.90;99.90
16846;DHT22;8539;53.188;8.696;2024-03-23T14:09:15;9.10;99.90
16846;DHT22;8539;53.188;8.696;2024-03-23T14:11:46;9.30;99.90
16846;DHT22;8539;53.188;8.696;2024-03-23T14:14:13;9.60;99.90
16846;DHT22;8539;53.188;8.696;2024-03-23T14:16:39;9.80;99.90
16846;DHT22;8539;53.188;8.696;2024-03-23T14:19:05;9.80;99.90
16846;DHT22;8539;53.188;8.696;2024-03-23T14:21:31;9.80;99.90
16846;DHT22;8539;53.188;8.696;2024-03-23T14:23:57;9.70;99.90
16846;DHT22;8539;53.188;8.696;2024-03-23T14:26:24;9.50;99.90
16846;DHT22;8539;53.188;8.696;2024-03-23T14:28:51;9.50;99.90
16846;DHT22;8539;53.188;8.696;2024-03-23T14:31:17;9.40;99.90
16846;DHT22;8539;53.188;8.696;2024-03-23T14:33:43;9.30;99.90
16846;DHT22;8539;53.188;8.696;2024-03-23T14:36:16;9.20;99.90
16846;DHT22;8539;53.188;8.696;2024-03-23T14:38:50;9.10;99.90
16846;DHT22;8539;53.188;8.696;2024-03-23T14:41:16;8.90;99.90
16846;DHT22;8539;53.188;8.696;2024-03-23T14:43:42;8.90;99.90
16846;DHT22;8539;53.188;8.696;2024-03-23T14:46:15;9.10;99.90
16846;DHT22;8539;53.188;8.696;2024-03-23T14:48:43;9.20;99.90
16846;DHT22;8539;53.188;8.696;2024-03-23T14:51:10;9.20;99.90
16846;DHT22;8539;53.188;8.696;2024-03-23T14:53:41;9.20;99.90
16846;DHT22;8539;53.188;8.696;2024-03-23T14:56:08;9.10;99.90
16846;DHT22;8539;53.188;8.696;2024-03-23T14:58:36;9.00;99.90
16846;DHT22;8539;53.188;8.696;2024-03-23T15:01:07;9.00;99.90
16846;DHT22;8539;53.188;8.696;2024-03-23T15:03:40;9.00;99.90
16846;DHT22;8539;53.188;8.696;2024-03-23T15:06:06;9.10;99.90
16846;DHT22;8539;53.188;8.696;2024-03-23T15:08:34;9.10;99.90
16846;DHT22;8539;53.188;8.696;2024-03-23T15:11:02;9.10;99.90
16846;DHT22;8539;53.188;8.696;2024-03-23T15:13:32;9.00;99.90
16846;DHT22;8539;53.188;8.696;2024-03-23T15:15:59;9.00;99.90
16846;DHT22;8539;53.188;8.696;2024-03-23T15:18:27;8.90;99.90
16846;DHT22;8539;53.188;8.696;2024-03-23T15:20:59;8.80;99.90
16846;DHT22;8539;53.188;8.696;2024-03-23T15:23:29;8.60;99.90
16846;DHT22;8539;53.188;8.696;2024-03-23T15:25:57;8.50;99.90
16846;DHT22;8539;53.188;8.696;2024-03-23T15:28:24;8.50;99.90
16846;DHT22;8539;53.188;8.696;2024-03-23T15:30:53;8.50;99.90
16846;DHT22;8539;53.188;8.696;2024-03-23T15:33:19;8.50;99.90
16846;DHT22;8539;53.188;8.696;2024-03-23T15:35:45;8.50;99.90
16846;DHT22;8539;53.188;8.696;2024-03-23T15:38:11;8.50;99.90
16846;DHT22;8539;53.188;8.696;2024-03-23T15:40:37;8.60;99.90
16846;DHT22;8539;53.188;8.696;2024-03-23T15:43:04;8.60;99.90
16846;DHT22;8539;53.188;8.696;2024-03-23T15:45:32;8.50;99.90
16846;DHT22;8539;53.188;8.696;2024-03-23T15:47:59;8.40;99.90
16846;DHT22;8539;53.188;8.696;2024-03-23T15:50:25;8.40;99.90
16846;DHT22;8539;53.188;8.696;2024-03-23T15:52:51;8.40;99.90
16846;DHT22;8539;53.188;8.696;2024-03-23T15:55:17;8.40;99.90
16846;DHT22;8539;53.188;8.696;2024-03-23T15:57:43;8.40;99.90
16846;DHT22;8539;53.188;8.696;2024-03-23T16:00:09;8.40;99.90
16846;DHT22;8539;53.188;8.696;2024-03-23T16:02:35;8.40;99.90
16846;DHT22;8539;53.188;8.696;2024-03-23T16:05:02;8.30;99.90
16846;DHT22;8539;53.188;8.696;2024-03-23T16:07:29;8.30;99.90
16846;DHT22;8539;53.188;8.696;2024-03-23T16:09:56;8.20;99.90
16846;DHT22;8539;53.188;8.696;2024-03-23T16:12:24;8.20;99.90
16846;DHT22;8539;53.188;8.696;2024-03-23T16:14:50;8.10;99.90
16846;DHT22;8539;53.188;8.696;2024-03-23T16:17:17;7.90;99.90
16846;DHT22;8539;53.188;8.696;2024-03-23T16:19:43;8.00;99.90
16846;DHT22;8539;53.188;8.696;2024-03-23T16:22:09;7.70;99.90
16846;DHT22;8539;53.188;8.696;2024-03-23T16:24:35;7.60;99.90
16846;DHT22;8539;53.188;8.696;2024-03-23T16:27:01;7.50;99.90
16846;DHT22;8539;53.188;8.696;2024-03-23T16:29:27;7.40;99.90
16846;DHT22;8539;53.188;8.696;2024-03-23T16:31:53;7.20;99.90
16846;DHT22;8539;53.188;8.696;2024-03-23T16:34:19;7.10;99.90
16846;DHT22;8539;53.188;8.696;2024-03-23T16:36:45;7.10;99.90
16846;DHT22;8539;53.188;8.696;2024-03-23T16:39:11;7.00;99.90
16846;DHT22;8539;53.188;8.696;2024-03-23T16:41:37;7.10;99.90
16846;DHT22;8539;53.188;8.696;2024-03-23T16:44:04;7.30;99.90
16846;DHT22;8539;53.188;8.696;2024-03-23T16:46:30;7.30;99.90
16846;DHT22;8539;53.188;8.696;2024-03-23T16:48:56;7.50;99.90
16846;DHT22;8539;53.188;8.696;2024-03-23T16:51:24;7.60;99.90
16846;DHT22;8539;53.188;8.696;2024-03-23T16:53:50;7.60;99.90
16846;DHT22;8539;53.188;8.696;2024-03-23T16:56:16;7.50;99.90
16846;DHT22;8539;53.188;8.696;2024-03-23T16:58:42;7.40;99.90
16846;DHT22;8539;53.188;8.696;2024-03-23T17:01:11;7.20;99.90
16846;DHT22;8539;53.188;8.696;2024-03-23T17:03:48;7.10;99.90